This is the latest recevied weather packets stored in our database for station/object LRCV. If no packets are shown the sender has not sent any weather packets the latest 10 day(s).
| Time | Temp. | Humidity | Pressure | Rain* | Wind** | Luminosity | Snow |
|---|---|---|---|---|---|---|---|
| 1777830542 | 11.11° C | 54% | 1020 hPa | - | - | - | - |
| 1777829646 | 11.11° C | 54% | 1020 hPa | - | - | - | - |
| 1777828721 | 12.78° C | 47% | 1019 hPa | - | - | - | - |
| 1777827822 | 12.78° C | 47% | 1019 hPa | - | - | - | - |
| 1777826921 | 13.89° C | 41% | 1019 hPa | - | - | - | - |
| 1777826021 | 13.89° C | 41% | 1019 hPa | - | - | - | - |
| 1777825121 | 13.89° C | 41% | 1019 hPa | - | - | - | - |
| 1777824241 | 13.89° C | 41% | 1019 hPa | - | - | - | - |
| 1777823363 | 13.89° C | 39% | 1020 hPa | - | - | - | - |
| 1777822421 | 13.89° C | 39% | 1020 hPa | - | - | - | - |
| 1777821522 | 16.11° C | 34% | 1020 hPa | - | - | - | - |
| 1777820621 | 16.11° C | 34% | 1020 hPa | - | - | - | - |
| 1777819724 | 15° C | 39% | 1020 hPa | - | - | - | - |
| 1777818821 | 15° C | 39% | 1020 hPa | - | - | - | - |
| 1777817922 | 15° C | 36% | 1021 hPa | - | - | - | - |
| 1777817029 | 15° C | 36% | 1021 hPa | - | - | - | - |
| 1777816118 | 15° C | 36% | 1021 hPa | - | - | - | - |
| 1777815221 | 15° C | 36% | 1021 hPa | - | - | - | - |
| 1777814322 | 13.89° C | 39% | 1021 hPa | - | - | - | - |
| 1777813422 | 13.89° C | 39% | 1021 hPa | - | - | - | - |
| 1777812602 | 15° C | 39% | 1022 hPa | - | - | - | - |
| 1777811622 | 15° C | 39% | 1022 hPa | - | - | - | - |
| 1777810736 | 13.89° C | 44% | 1022 hPa | - | - | - | - |
| 1777809822 | 13.89° C | 44% | 1022 hPa | - | - | - | - |
| 1777808922 | 13.89° C | 39% | 1022 hPa | - | - | - | - |
* Rain since midnight (hover to see other rain measurements)
** Current wind speed in m/s (hover to see current wind gust speed)